sensor_id;sensor_type;location;lat;lon;timestamp;P1;durP1;ratioP1;P2;durP2;ratioP2
50363;SDS011;36272;59.400;17.982;2023-05-07T00:02:57;21.20;;;4.50;;
50363;SDS011;36272;59.400;17.982;2023-05-07T00:08:02;11.27;;;3.67;;
50363;SDS011;36272;59.400;17.982;2023-05-07T00:13:03;8.35;;;3.92;;
50363;SDS011;36272;59.400;17.982;2023-05-07T00:18:05;17.58;;;3.50;;
50363;SDS011;36272;59.400;17.982;2023-05-07T00:23:07;17.52;;;3.72;;
50363;SDS011;36272;59.400;17.982;2023-05-07T00:28:09;16.08;;;3.95;;
50363;SDS011;36272;59.400;17.982;2023-05-07T00:33:10;14.35;;;4.10;;
50363;SDS011;36272;59.400;17.982;2023-05-07T00:38:12;10.48;;;3.50;;
50363;SDS011;36272;59.400;17.982;2023-05-07T00:43:13;6.97;;;3.55;;
50363;SDS011;36272;59.400;17.982;2023-05-07T00:48:16;10.95;;;3.80;;
50363;SDS011;36272;59.400;17.982;2023-05-07T00:53:18;8.60;;;3.00;;
50363;SDS011;36272;59.400;17.982;2023-05-07T00:58:20;11.82;;;3.60;;
50363;SDS011;36272;59.400;17.982;2023-05-07T01:03:22;13.25;;;3.70;;
50363;SDS011;36272;59.400;17.982;2023-05-07T01:08:24;12.48;;;4.10;;
50363;SDS011;36272;59.400;17.982;2023-05-07T01:13:29;12.23;;;3.88;;
50363;SDS011;36272;59.400;17.982;2023-05-07T01:18:31;12.13;;;3.50;;
50363;SDS011;36272;59.400;17.982;2023-05-07T01:23:33;9.20;;;3.67;;
50363;SDS011;36272;59.400;17.982;2023-05-07T01:28:35;10.73;;;4.07;;
50363;SDS011;36272;59.400;17.982;2023-05-07T01:33:37;7.55;;;3.83;;
50363;SDS011;36272;59.400;17.982;2023-05-07T01:38:39;8.90;;;3.53;;
50363;SDS011;36272;59.400;17.982;2023-05-07T01:43:43;7.30;;;3.67;;
50363;SDS011;36272;59.400;17.982;2023-05-07T01:48:45;8.98;;;3.95;;
50363;SDS011;36272;59.400;17.982;2023-05-07T01:53:47;8.48;;;3.90;;
50363;SDS011;36272;59.400;17.982;2023-05-07T01:58:51;13.23;;;3.90;;
50363;SDS011;36272;59.400;17.982;2023-05-07T02:03:53;10.43;;;4.05;;
50363;SDS011;36272;59.400;17.982;2023-05-07T02:08:55;9.25;;;3.80;;
50363;SDS011;36272;59.400;17.982;2023-05-07T02:13:57;9.55;;;3.60;;
50363;SDS011;36272;59.400;17.982;2023-05-07T02:18:58;15.00;;;3.83;;
50363;SDS011;36272;59.400;17.982;2023-05-07T02:24:03;8.40;;;4.45;;
50363;SDS011;36272;59.400;17.982;2023-05-07T02:29:05;6.63;;;3.72;;
50363;SDS011;36272;59.400;17.982;2023-05-07T02:34:07;8.50;;;4.20;;
50363;SDS011;36272;59.400;17.982;2023-05-07T02:39:08;13.63;;;5.25;;
50363;SDS011;36272;59.400;17.982;2023-05-07T02:44:10;10.32;;;3.90;;
50363;SDS011;36272;59.400;17.982;2023-05-07T02:49:12;9.60;;;4.18;;
50363;SDS011;36272;59.400;17.982;2023-05-07T02:54:13;12.43;;;4.40;;
50363;SDS011;36272;59.400;17.982;2023-05-07T02:59:15;12.00;;;4.30;;
50363;SDS011;36272;59.400;17.982;2023-05-07T03:04:16;13.35;;;5.10;;
50363;SDS011;36272;59.400;17.982;2023-05-07T03:09:18;14.10;;;4.90;;
50363;SDS011;36272;59.400;17.982;2023-05-07T03:14:20;10.23;;;4.10;;
50363;SDS011;36272;59.400;17.982;2023-05-07T03:19:22;10.73;;;4.10;;
50363;SDS011;36272;59.400;17.982;2023-05-07T03:24:23;9.68;;;4.32;;
50363;SDS011;36272;59.400;17.982;2023-05-07T03:29:25;15.82;;;4.30;;
50363;SDS011;36272;59.400;17.982;2023-05-07T03:34:27;15.02;;;4.13;;
50363;SDS011;36272;59.400;17.982;2023-05-07T03:39:28;14.25;;;4.75;;
50363;SDS011;36272;59.400;17.982;2023-05-07T03:44:30;12.93;;;4.40;;
50363;SDS011;36272;59.400;17.982;2023-05-07T03:49:32;12.23;;;5.30;;
50363;SDS011;36272;59.400;17.982;2023-05-07T03:54:33;11.70;;;4.45;;
50363;SDS011;36272;59.400;17.982;2023-05-07T03:59:35;11.55;;;4.72;;
50363;SDS011;36272;59.400;17.982;2023-05-07T04:04:37;15.90;;;5.93;;
50363;SDS011;36272;59.400;17.982;2023-05-07T04:09:38;10.23;;;5.00;;
50363;SDS011;36272;59.400;17.982;2023-05-07T04:14:40;15.68;;;5.82;;
50363;SDS011;36272;59.400;17.982;2023-05-07T04:19:41;8.02;;;5.07;;
50363;SDS011;36272;59.400;17.982;2023-05-07T04:24:46;13.68;;;5.20;;
50363;SDS011;36272;59.400;17.982;2023-05-07T04:29:48;13.32;;;5.85;;
50363;SDS011;36272;59.400;17.982;2023-05-07T04:34:52;9.70;;;5.60;;
50363;SDS011;36272;59.400;17.982;2023-05-07T04:39:54;10.60;;;5.20;;
50363;SDS011;36272;59.400;17.982;2023-05-07T04:44:56;11.98;;;6.03;;
50363;SDS011;36272;59.400;17.982;2023-05-07T04:49:57;10.02;;;5.70;;
50363;SDS011;36272;59.400;17.982;2023-05-07T04:54:59;15.55;;;6.78;;
50363;SDS011;36272;59.400;17.982;2023-05-07T05:00:01;16.20;;;6.65;;
50363;SDS011;36272;59.400;17.982;2023-05-07T05:05:05;8.68;;;5.38;;
50363;SDS011;36272;59.400;17.982;2023-05-07T05:10:07;10.40;;;5.05;;
50363;SDS011;36272;59.400;17.982;2023-05-07T05:15:10;10.45;;;5.15;;
50363;SDS011;36272;59.400;17.982;2023-05-07T05:20:13;11.38;;;5.05;;
50363;SDS011;36272;59.400;17.982;2023-05-07T05:25:15;10.82;;;5.05;;
50363;SDS011;36272;59.400;17.982;2023-05-07T05:30:17;6.80;;;3.70;;
50363;SDS011;36272;59.400;17.982;2023-05-07T05:35:18;4.95;;;3.25;;
50363;SDS011;36272;59.400;17.982;2023-05-07T05:40:20;7.53;;;3.78;;
50363;SDS011;36272;59.400;17.982;2023-05-07T05:45:22;3.50;;;2.80;;
50363;SDS011;36272;59.400;17.982;2023-05-07T05:50:23;7.25;;;3.08;;
50363;SDS011;36272;59.400;17.982;2023-05-07T05:55:26;4.55;;;3.10;;
50363;SDS011;36272;59.400;17.982;2023-05-07T06:00:28;6.25;;;3.03;;
50363;SDS011;36272;59.400;17.982;2023-05-07T06:05:32;5.45;;;2.85;;
50363;SDS011;36272;59.400;17.982;2023-05-07T06:10:37;4.22;;;2.67;;
50363;SDS011;36272;59.400;17.982;2023-05-07T06:15:38;9.77;;;2.85;;
50363;SDS011;36272;59.400;17.982;2023-05-07T06:20:40;4.30;;;2.70;;
50363;SDS011;36272;59.400;17.982;2023-05-07T06:25:42;4.93;;;2.42;;
50363;SDS011;36272;59.400;17.982;2023-05-07T06:30:47;5.20;;;2.35;;
50363;SDS011;36272;59.400;17.982;2023-05-07T06:35:51;4.85;;;2.22;;
50363;SDS011;36272;59.400;17.982;2023-05-07T06:46:17;7.78;;;2.42;;
50363;SDS011;36272;59.400;17.982;2023-05-07T06:51:18;3.72;;;2.40;;
50363;SDS011;36272;59.400;17.982;2023-05-07T06:56:20;6.25;;;2.53;;
50363;SDS011;36272;59.400;17.982;2023-05-07T07:01:22;5.32;;;2.47;;
50363;SDS011;36272;59.400;17.982;2023-05-07T07:06:23;6.60;;;2.78;;
50363;SDS011;36272;59.400;17.982;2023-05-07T07:11:28;6.50;;;2.15;;
50363;SDS011;36272;59.400;17.982;2023-05-07T07:16:36;6.88;;;2.58;;
50363;SDS011;36272;59.400;17.982;2023-05-07T07:21:37;5.43;;;2.67;;
50363;SDS011;36272;59.400;17.982;2023-05-07T07:26:39;3.00;;;2.22;;
50363;SDS011;36272;59.400;17.982;2023-05-07T07:31:41;5.18;;;2.60;;
50363;SDS011;36272;59.400;17.982;2023-05-07T07:36:42;4.35;;;2.22;;
50363;SDS011;36272;59.400;17.982;2023-05-07T07:41:44;12.52;;;3.28;;
50363;SDS011;36272;59.400;17.982;2023-05-07T07:46:46;7.60;;;2.47;;
50363;SDS011;36272;59.400;17.982;2023-05-07T07:51:47;6.43;;;2.22;;
50363;SDS011;36272;59.400;17.982;2023-05-07T07:56:49;12.43;;;2.50;;
50363;SDS011;36272;59.400;17.982;2023-05-07T08:01:51;4.47;;;2.20;;
50363;SDS011;36272;59.400;17.982;2023-05-07T08:06:54;4.53;;;1.92;;
50363;SDS011;36272;59.400;17.982;2023-05-07T08:11:57;4.40;;;1.90;;
50363;SDS011;36272;59.400;17.982;2023-05-07T08:16:58;3.08;;;2.05;;
50363;SDS011;36272;59.400;17.982;2023-05-07T08:22:00;17.23;;;2.95;;
50363;SDS011;36272;59.400;17.982;2023-05-07T08:27:02;6.80;;;2.10;;
50363;SDS011;36272;59.400;17.982;2023-05-07T08:32:03;5.40;;;1.70;;
50363;SDS011;36272;59.400;17.982;2023-05-07T08:37:05;5.47;;;1.83;;
50363;SDS011;36272;59.400;17.982;2023-05-07T08:42:07;2.80;;;1.85;;
50363;SDS011;36272;59.400;17.982;2023-05-07T08:47:10;7.25;;;1.70;;
50363;SDS011;36272;59.400;17.982;2023-05-07T08:52:12;4.97;;;2.15;;
50363;SDS011;36272;59.400;17.982;2023-05-07T08:57:14;5.80;;;1.90;;
50363;SDS011;36272;59.400;17.982;2023-05-07T09:02:16;3.92;;;1.80;;
50363;SDS011;36272;59.400;17.982;2023-05-07T09:07:19;5.10;;;2.15;;
50363;SDS011;36272;59.400;17.982;2023-05-07T09:12:21;3.90;;;1.85;;
50363;SDS011;36272;59.400;17.982;2023-05-07T09:17:23;4.82;;;2.30;;
50363;SDS011;36272;59.400;17.982;2023-05-07T09:22:25;7.75;;;1.92;;
50363;SDS011;36272;59.400;17.982;2023-05-07T09:27:27;7.22;;;2.03;;
50363;SDS011;36272;59.400;17.982;2023-05-07T09:32:29;9.73;;;1.98;;
50363;SDS011;36272;59.400;17.982;2023-05-07T09:37:32;2.90;;;2.00;;
50363;SDS011;36272;59.400;17.982;2023-05-07T09:42:34;2.47;;;1.60;;
50363;SDS011;36272;59.400;17.982;2023-05-07T09:47:37;3.30;;;1.52;;
50363;SDS011;36272;59.400;17.982;2023-05-07T09:52:55;7.68;;;2.03;;
50363;SDS011;36272;59.400;17.982;2023-05-07T09:57:59;4.90;;;1.83;;
50363;SDS011;36272;59.400;17.982;2023-05-07T10:03:03;8.40;;;1.80;;
50363;SDS011;36272;59.400;17.982;2023-05-07T10:08:06;3.33;;;1.90;;
50363;SDS011;36272;59.400;17.982;2023-05-07T10:13:10;2.75;;;1.70;;
50363;SDS011;36272;59.400;17.982;2023-05-07T10:18:12;6.28;;;2.17;;
50363;SDS011;36272;59.400;17.982;2023-05-07T10:23:16;4.63;;;2.05;;
50363;SDS011;36272;59.400;17.982;2023-05-07T10:28:21;4.22;;;2.13;;
50363;SDS011;36272;59.400;17.982;2023-05-07T10:33:27;7.25;;;2.08;;
50363;SDS011;36272;59.400;17.982;2023-05-07T10:38:31;4.43;;;2.30;;
50363;SDS011;36272;59.400;17.982;2023-05-07T10:43:41;5.40;;;2.22;;
50363;SDS011;36272;59.400;17.982;2023-05-07T11:04:29;2.88;;;1.63;;
50363;SDS011;36272;59.400;17.982;2023-05-07T11:14:59;2.60;;;1.92;;
50363;SDS011;36272;59.400;17.982;2023-05-07T11:20:03;3.65;;;1.85;;
50363;SDS011;36272;59.400;17.982;2023-05-07T11:25:06;4.57;;;2.13;;
50363;SDS011;36272;59.400;17.982;2023-05-07T11:30:08;8.85;;;1.90;;
50363;SDS011;36272;59.400;17.982;2023-05-07T11:35:10;2.95;;;1.55;;
50363;SDS011;36272;59.400;17.982;2023-05-07T11:40:12;3.80;;;2.03;;
50363;SDS011;36272;59.400;17.982;2023-05-07T11:45:19;3.95;;;1.85;;
50363;SDS011;36272;59.400;17.982;2023-05-07T11:50:25;5.22;;;1.60;;
50363;SDS011;36272;59.400;17.982;2023-05-07T11:55:27;5.65;;;1.52;;
50363;SDS011;36272;59.400;17.982;2023-05-07T12:00:28;6.25;;;1.60;;
50363;SDS011;36272;59.400;17.982;2023-05-07T12:05:30;4.30;;;1.50;;
50363;SDS011;36272;59.400;17.982;2023-05-07T12:10:32;4.93;;;1.45;;
50363;SDS011;36272;59.400;17.982;2023-05-07T12:15:34;3.15;;;1.45;;
50363;SDS011;36272;59.400;17.982;2023-05-07T12:20:36;13.23;;;1.58;;
50363;SDS011;36272;59.400;17.982;2023-05-07T12:25:39;3.60;;;1.52;;
50363;SDS011;36272;59.400;17.982;2023-05-07T12:30:44;6.72;;;1.55;;
50363;SDS011;36272;59.400;17.982;2023-05-07T12:35:48;2.72;;;1.33;;
50363;SDS011;36272;59.400;17.982;2023-05-07T12:40:50;1.63;;;0.90;;
50363;SDS011;36272;59.400;17.982;2023-05-07T12:46:05;4.18;;;1.17;;
50363;SDS011;36272;59.400;17.982;2023-05-07T12:51:09;1.65;;;1.20;;
50363;SDS011;36272;59.400;17.982;2023-05-07T12:56:15;3.40;;;1.38;;
50363;SDS011;36272;59.400;17.982;2023-05-07T13:01:17;1.60;;;0.80;;
50363;SDS011;36272;59.400;17.982;2023-05-07T13:06:20;6.50;;;1.88;;
50363;SDS011;36272;59.400;17.982;2023-05-07T13:11:22;4.95;;;1.30;;
50363;SDS011;36272;59.400;17.982;2023-05-07T13:16:24;9.57;;;1.48;;
50363;SDS011;36272;59.400;17.982;2023-05-07T13:21:25;2.20;;;1.17;;
50363;SDS011;36272;59.400;17.982;2023-05-07T13:26:29;2.90;;;1.40;;
50363;SDS011;36272;59.400;17.982;2023-05-07T13:31:32;5.57;;;1.85;;
50363;SDS011;36272;59.400;17.982;2023-05-07T13:36:34;14.60;;;1.73;;
50363;SDS011;36272;59.400;17.982;2023-05-07T13:41:38;2.97;;;1.20;;
50363;SDS011;36272;59.400;17.982;2023-05-07T13:46:40;5.40;;;1.30;;
50363;SDS011;36272;59.400;17.982;2023-05-07T13:51:41;1.88;;;1.20;;
50363;SDS011;36272;59.400;17.982;2023-05-07T13:56:43;2.30;;;1.42;;
50363;SDS011;36272;59.400;17.982;2023-05-07T14:01:44;3.63;;;1.10;;
50363;SDS011;36272;59.400;17.982;2023-05-07T14:06:46;4.68;;;1.60;;
50363;SDS011;36272;59.400;17.982;2023-05-07T14:11:48;3.97;;;1.10;;
50363;SDS011;36272;59.400;17.982;2023-05-07T14:16:52;13.00;;;1.55;;
50363;SDS011;36272;59.400;17.982;2023-05-07T14:21:54;3.78;;;1.55;;
50363;SDS011;36272;59.400;17.982;2023-05-07T14:26:56;5.93;;;1.95;;
50363;SDS011;36272;59.400;17.982;2023-05-07T14:32:04;2.72;;;1.45;;
50363;SDS011;36272;59.400;17.982;2023-05-07T14:37:06;3.40;;;1.17;;
50363;SDS011;36272;59.400;17.982;2023-05-07T14:42:08;3.78;;;1.40;;
50363;SDS011;36272;59.400;17.982;2023-05-07T14:47:09;4.40;;;1.48;;
50363;SDS011;36272;59.400;17.982;2023-05-07T14:52:11;4.20;;;1.35;;
50363;SDS011;36272;59.400;17.982;2023-05-07T14:57:13;3.28;;;1.27;;
50363;SDS011;36272;59.400;17.982;2023-05-07T15:02:17;2.83;;;1.30;;
50363;SDS011;36272;59.400;17.982;2023-05-07T15:07:19;10.23;;;1.25;;
50363;SDS011;36272;59.400;17.982;2023-05-07T15:12:21;2.55;;;1.35;;
50363;SDS011;36272;59.400;17.982;2023-05-07T15:17:22;6.75;;;1.98;;
50363;SDS011;36272;59.400;17.982;2023-05-07T15:22:24;5.25;;;1.60;;
50363;SDS011;36272;59.400;17.982;2023-05-07T15:27:25;4.72;;;1.58;;
50363;SDS011;36272;59.400;17.982;2023-05-07T15:32:27;4.28;;;2.13;;
50363;SDS011;36272;59.400;17.982;2023-05-07T15:37:30;5.47;;;1.67;;
50363;SDS011;36272;59.400;17.982;2023-05-07T15:42:32;5.68;;;1.30;;
50363;SDS011;36272;59.400;17.982;2023-05-07T15:47:34;7.63;;;1.58;;
50363;SDS011;36272;59.400;17.982;2023-05-07T15:52:36;3.85;;;1.60;;
50363;SDS011;36272;59.400;17.982;2023-05-07T15:57:39;3.42;;;1.58;;
50363;SDS011;36272;59.400;17.982;2023-05-07T16:02:46;7.25;;;1.50;;
50363;SDS011;36272;59.400;17.982;2023-05-07T16:07:49;10.20;;;1.95;;
50363;SDS011;36272;59.400;17.982;2023-05-07T16:12:50;4.03;;;1.67;;
50363;SDS011;36272;59.400;17.982;2023-05-07T16:17:52;7.68;;;2.40;;
50363;SDS011;36272;59.400;17.982;2023-05-07T16:22:58;9.60;;;1.80;;
50363;SDS011;36272;59.400;17.982;2023-05-07T16:28:02;6.15;;;1.88;;
50363;SDS011;36272;59.400;17.982;2023-05-07T16:33:06;6.10;;;1.77;;
50363;SDS011;36272;59.400;17.982;2023-05-07T16:43:38;7.55;;;1.70;;
50363;SDS011;36272;59.400;17.982;2023-05-07T16:48:58;5.93;;;1.70;;
50363;SDS011;36272;59.400;17.982;2023-05-07T16:54:00;4.50;;;1.80;;
50363;SDS011;36272;59.400;17.982;2023-05-07T16:59:02;5.28;;;2.00;;
50363;SDS011;36272;59.400;17.982;2023-05-07T17:04:03;5.70;;;2.05;;
50363;SDS011;36272;59.400;17.982;2023-05-07T17:09:05;6.53;;;2.03;;
50363;SDS011;36272;59.400;17.982;2023-05-07T17:14:07;7.93;;;2.08;;
50363;SDS011;36272;59.400;17.982;2023-05-07T17:19:11;7.55;;;1.90;;
50363;SDS011;36272;59.400;17.982;2023-05-07T17:24:13;4.15;;;1.90;;
50363;SDS011;36272;59.400;17.982;2023-05-07T17:29:14;4.30;;;2.05;;
50363;SDS011;36272;59.400;17.982;2023-05-07T17:34:16;4.32;;;1.98;;
50363;SDS011;36272;59.400;17.982;2023-05-07T17:39:18;5.10;;;2.08;;
50363;SDS011;36272;59.400;17.982;2023-05-07T17:44:19;10.05;;;2.03;;
50363;SDS011;36272;59.400;17.982;2023-05-07T17:49:21;4.88;;;2.17;;
50363;SDS011;36272;59.400;17.982;2023-05-07T17:54:23;6.88;;;2.17;;
50363;SDS011;36272;59.400;17.982;2023-05-07T17:59:27;6.47;;;2.45;;
50363;SDS011;36272;59.400;17.982;2023-05-07T18:04:28;8.80;;;2.15;;
50363;SDS011;36272;59.400;17.982;2023-05-07T18:09:30;4.50;;;2.00;;
50363;SDS011;36272;59.400;17.982;2023-05-07T18:14:32;5.45;;;2.05;;
50363;SDS011;36272;59.400;17.982;2023-05-07T18:19:33;4.57;;;1.83;;
50363;SDS011;36272;59.400;17.982;2023-05-07T18:24:35;4.85;;;2.00;;
50363;SDS011;36272;59.400;17.982;2023-05-07T18:29:37;8.15;;;2.30;;
50363;SDS011;36272;59.400;17.982;2023-05-07T18:34:38;6.78;;;2.33;;
50363;SDS011;36272;59.400;17.982;2023-05-07T18:39:40;7.63;;;1.85;;
50363;SDS011;36272;59.400;17.982;2023-05-07T18:44:43;8.85;;;2.28;;
50363;SDS011;36272;59.400;17.982;2023-05-07T18:49:45;5.03;;;2.00;;
50363;SDS011;36272;59.400;17.982;2023-05-07T18:54:47;5.45;;;2.05;;
50363;SDS011;36272;59.400;17.982;2023-05-07T18:59:50;4.15;;;1.98;;
50363;SDS011;36272;59.400;17.982;2023-05-07T19:04:53;5.45;;;2.08;;
50363;SDS011;36272;59.400;17.982;2023-05-07T19:09:54;3.58;;;2.13;;
50363;SDS011;36272;59.400;17.982;2023-05-07T19:14:56;8.60;;;2.00;;
50363;SDS011;36272;59.400;17.982;2023-05-07T19:20:01;7.13;;;2.10;;
50363;SDS011;36272;59.400;17.982;2023-05-07T19:25:04;8.38;;;2.50;;
50363;SDS011;36272;59.400;17.982;2023-05-07T19:30:06;6.13;;;2.00;;
50363;SDS011;36272;59.400;17.982;2023-05-07T19:35:09;7.57;;;2.28;;
50363;SDS011;36272;59.400;17.982;2023-05-07T19:40:10;4.95;;;2.35;;
50363;SDS011;36272;59.400;17.982;2023-05-07T19:45:15;12.98;;;2.78;;
50363;SDS011;36272;59.400;17.982;2023-05-07T19:50:17;7.20;;;2.30;;
50363;SDS011;36272;59.400;17.982;2023-05-07T19:55:22;6.23;;;2.10;;
50363;SDS011;36272;59.400;17.982;2023-05-07T20:00:24;5.75;;;2.45;;
50363;SDS011;36272;59.400;17.982;2023-05-07T20:05:32;13.25;;;2.90;;
50363;SDS011;36272;59.400;17.982;2023-05-07T20:10:34;5.50;;;2.50;;
50363;SDS011;36272;59.400;17.982;2023-05-07T20:15:36;8.25;;;2.45;;
50363;SDS011;36272;59.400;17.982;2023-05-07T20:20:38;4.93;;;2.60;;
50363;SDS011;36272;59.400;17.982;2023-05-07T20:25:40;7.47;;;2.17;;
50363;SDS011;36272;59.400;17.982;2023-05-07T20:30:43;7.82;;;2.92;;
50363;SDS011;36272;59.400;17.982;2023-05-07T20:35:45;7.40;;;2.30;;
50363;SDS011;36272;59.400;17.982;2023-05-07T20:40:47;9.05;;;2.42;;
50363;SDS011;36272;59.400;17.982;2023-05-07T20:45:57;4.85;;;2.42;;
50363;SDS011;36272;59.400;17.982;2023-05-07T20:50:59;7.47;;;2.30;;
50363;SDS011;36272;59.400;17.982;2023-05-07T20:56:02;8.68;;;2.33;;
50363;SDS011;36272;59.400;17.982;2023-05-07T21:01:04;4.13;;;2.42;;
50363;SDS011;36272;59.400;17.982;2023-05-07T21:06:06;7.93;;;2.28;;
50363;SDS011;36272;59.400;17.982;2023-05-07T21:11:08;11.55;;;2.53;;
50363;SDS011;36272;59.400;17.982;2023-05-07T21:16:10;5.10;;;2.47;;
50363;SDS011;36272;59.400;17.982;2023-05-07T21:21:11;14.13;;;2.67;;
50363;SDS011;36272;59.400;17.982;2023-05-07T21:26:17;8.32;;;3.10;;
50363;SDS011;36272;59.400;17.982;2023-05-07T21:31:19;9.00;;;2.60;;
50363;SDS011;36272;59.400;17.982;2023-05-07T21:36:21;5.68;;;2.85;;
50363;SDS011;36272;59.400;17.982;2023-05-07T21:41:23;9.30;;;2.70;;
50363;SDS011;36272;59.400;17.982;2023-05-07T21:46:25;6.47;;;2.53;;
50363;SDS011;36272;59.400;17.982;2023-05-07T21:51:26;8.15;;;2.90;;
50363;SDS011;36272;59.400;17.982;2023-05-07T21:56:28;7.60;;;2.70;;
50363;SDS011;36272;59.400;17.982;2023-05-07T22:01:30;9.88;;;2.85;;
50363;SDS011;36272;59.400;17.982;2023-05-07T22:06:31;5.20;;;2.33;;
50363;SDS011;36272;59.400;17.982;2023-05-07T22:11:33;4.65;;;1.92;;
50363;SDS011;36272;59.400;17.982;2023-05-07T22:16:35;12.15;;;2.67;;
50363;SDS011;36272;59.400;17.982;2023-05-07T22:21:36;10.00;;;2.80;;
50363;SDS011;36272;59.400;17.982;2023-05-07T22:26:38;11.40;;;3.30;;
50363;SDS011;36272;59.400;17.982;2023-05-07T22:31:40;7.18;;;2.80;;
50363;SDS011;36272;59.400;17.982;2023-05-07T22:36:41;8.57;;;3.00;;
50363;SDS011;36272;59.400;17.982;2023-05-07T22:41:43;6.75;;;2.35;;
50363;SDS011;36272;59.400;17.982;2023-05-07T22:46:45;8.48;;;3.22;;
50363;SDS011;36272;59.400;17.982;2023-05-07T22:51:47;4.90;;;2.72;;
50363;SDS011;36272;59.400;17.982;2023-05-07T22:56:48;5.90;;;2.67;;
50363;SDS011;36272;59.400;17.982;2023-05-07T23:01:50;9.80;;;2.88;;
50363;SDS011;36272;59.400;17.982;2023-05-07T23:06:52;8.73;;;3.15;;
50363;SDS011;36272;59.400;17.982;2023-05-07T23:11:54;5.95;;;3.17;;
50363;SDS011;36272;59.400;17.982;2023-05-07T23:16:55;17.00;;;3.45;;
50363;SDS011;36272;59.400;17.982;2023-05-07T23:21:57;8.07;;;2.70;;
50363;SDS011;36272;59.400;17.982;2023-05-07T23:26:59;7.72;;;2.95;;
50363;SDS011;36272;59.400;17.982;2023-05-07T23:32:03;7.43;;;3.08;;
50363;SDS011;36272;59.400;17.982;2023-05-07T23:37:06;7.97;;;3.22;;
50363;SDS011;36272;59.400;17.982;2023-05-07T23:42:09;8.35;;;3.10;;
50363;SDS011;36272;59.400;17.982;2023-05-07T23:47:11;8.30;;;3.17;;
50363;SDS011;36272;59.400;17.982;2023-05-07T23:52:12;8.68;;;3.15;;
50363;SDS011;36272;59.400;17.982;2023-05-07T23:57:14;5.20;;;2.70;;
